Time;durP1;ratioP1;P1;durP2;ratioP2;P2;SDS_P1;SDS_P2;PMS_P1;PMS_P2;Temp;Humidity;BMP_temperature;BMP_pressure;BME280_temperature;BME280_humidity;BME280_pressure;Samples;Min_cycle;Max_cycle;Signal;HPM_P1;HPM_P2
2022/04/13 00:00:47;;;;;;;5.70;3.80;;;9.40;99.90;;;;;;5035436;28;20258;-82
2022/04/13 00:03:13;;;;;;;4.67;3.83;;;;;;;;;;5035340;28;20205;-81
2022/04/13 00:05:39;;;;;;;8.77;3.57;;;9.30;99.90;;;;;;5036688;28;20174;-81
2022/04/13 00:08:08;;;;;;;6.07;4.10;;;9.30;99.90;;;;;;5035101;28;20186;-81
2022/04/13 00:10:34;;;;;;;5.53;3.87;;;9.30;99.90;;;;;;5035506;28;20202;-81
2022/04/13 00:13:00;;;;;;;5.37;3.90;;;9.30;99.90;;;;;;5035302;28;20227;-81
2022/04/13 00:15:26;;;;;;;6.70;3.57;;;9.20;99.90;;;;;;5033321;28;20676;-82
2022/04/13 00:17:52;;;;;;;5.23;3.63;;;9.20;99.90;;;;;;5033327;28;20648;-82
2022/04/13 00:20:18;;;;;;;8.00;3.37;;;;;;;;;;5034897;28;20222;-82
2022/04/13 00:22:43;;;;;;;4.20;3.03;;;9.40;99.90;;;;;;5038535;28;20181;-81
2022/04/13 00:25:09;;;;;;;4.77;3.37;;;9.30;99.90;;;;;;5037808;28;20185;-82
2022/04/13 00:27:35;;;;;;;4.40;3.10;;;9.30;99.90;;;;;;5037154;28;20193;-81
2022/04/13 00:30:01;;;;;;;4.63;3.20;;;;;;;;;;5042861;28;20201;-82
2022/04/13 00:32:27;;;;;;;3.83;2.77;;;9.30;99.90;;;;;;5043037;28;20190;-81
2022/04/13 00:34:54;;;;;;;3.47;3.03;;;;;;;;;;5043493;28;20192;-81
2022/04/13 00:37:20;;;;;;;5.13;3.07;;;9.30;99.90;;;;;;5043163;28;20201;-81
2022/04/13 00:39:46;;;;;;;6.30;3.73;;;9.40;99.90;;;;;;5043532;28;20194;-82
2022/04/13 00:42:11;;;;;;;3.43;3.00;;;9.40;99.90;;;;;;5042939;28;20182;-81
2022/04/13 00:44:37;;;;;;;3.33;3.00;;;9.50;99.90;;;;;;5040260;28;20648;-81
2022/04/13 00:47:07;;;;;;;3.23;2.80;;;9.50;99.90;;;;;;5040320;28;20178;-81
2022/04/13 00:49:35;;;;;;;4.53;2.80;;;9.50;99.90;;;;;;5040914;28;20213;-83
2022/04/13 00:52:02;;;;;;;7.73;2.90;;;9.50;99.90;;;;;;5041890;28;20287;-81
2022/04/13 00:54:30;;;;;;;4.13;2.87;;;9.50;99.90;;;;;;5041202;28;20514;-81
2022/04/13 00:56:58;;;;;;;6.60;2.60;;;9.50;99.90;;;;;;5042985;28;20209;-82
2022/04/13 00:59:24;;;;;;;2.97;2.63;;;9.50;99.90;;;;;;5042689;28;20293;-81
2022/04/13 01:01:53;;;;;;;5.33;2.77;;;9.50;99.90;;;;;;5041790;28;20174;-81
2022/04/13 01:04:19;;;;;;;4.13;2.83;;;9.50;99.90;;;;;;5042759;28;20166;-81
2022/04/13 01:06:45;;;;;;;5.97;2.90;;;9.50;99.90;;;;;;5042824;28;20182;-81
2022/04/13 01:09:13;;;;;;;6.27;3.30;;;9.50;99.90;;;;;;5044254;28;20249;-81
2022/04/13 01:11:39;;;;;;;4.10;2.80;;;9.50;99.90;;;;;;5045219;28;20663;-81
2022/04/13 01:14:05;;;;;;;3.63;3.13;;;9.50;99.90;;;;;;5044561;28;20342;-81
2022/04/13 01:16:32;;;;;;;4.50;2.90;;;9.50;99.90;;;;;;5042339;28;20213;-81
2022/04/13 01:18:57;;;;;;;3.00;2.40;;;9.50;99.90;;;;;;5040886;28;20181;-81
2022/04/13 01:21:47;;;;;;;4.57;3.30;;;9.40;99.90;;;;;;5040508;28;20174;-82
2022/04/13 01:24:15;;;;;;;4.17;3.23;;;9.30;99.90;;;;;;5040940;28;20170;-81
2022/04/13 01:26:41;;;;;;;3.80;2.90;;;9.30;99.90;;;;;;5040778;28;20182;-81
2022/04/13 01:29:07;;;;;;;4.87;3.10;;;9.30;99.90;;;;;;5042213;28;20180;-81
2022/04/13 01:31:33;;;;;;;4.40;3.00;;;9.20;99.90;;;;;;5042239;28;20181;-81
2022/04/13 01:33:59;;;;;;;4.47;2.70;;;9.20;99.90;;;;;;5040856;28;20259;-81
2022/04/13 01:36:28;;;;;;;5.10;2.90;;;9.30;99.90;;;;;;5040350;28;20202;-80
2022/04/13 01:38:54;;;;;;;3.47;2.70;;;9.30;99.90;;;;;;5040462;28;20186;-80
2022/04/13 01:41:20;;;;;;;5.70;2.33;;;9.30;99.90;;;;;;5041188;28;20190;-80
2022/04/13 01:43:46;;;;;;;3.00;2.67;;;;;;;;;;5041068;28;20185;-80
2022/04/13 01:46:12;;;;;;;6.00;2.60;;;9.30;99.90;;;;;;5042715;28;20201;-80
2022/04/13 01:48:38;;;;;;;5.20;3.03;;;9.20;99.90;;;;;;5042455;28;20197;-80
2022/04/13 01:51:04;;;;;;;5.03;2.50;;;;;;;;;;5042963;28;20201;-80
2022/04/13 01:53:29;;;;;;;3.63;2.80;;;9.20;99.90;;;;;;5042123;28;20174;-80
2022/04/13 01:55:55;;;;;;;3.47;2.43;;;9.10;99.90;;;;;;5040347;28;20209;-80
2022/04/13 01:58:22;;;;;;;4.17;2.47;;;9.10;99.90;;;;;;5041221;28;20178;-80
2022/04/13 02:00:53;;;;;;;6.03;2.63;;;9.10;99.90;;;;;;5047646;28;20194;-80
2022/04/13 02:03:20;;;;;;;8.53;2.80;;;9.10;99.90;;;;;;5059974;28;20210;-80
2022/04/13 02:05:47;;;;;;;3.10;2.70;;;9.10;99.90;;;;;;5043573;28;20643;-80
2022/04/13 02:08:13;;;;;;;4.93;2.70;;;9.00;99.90;;;;;;5044013;28;20556;-80
2022/04/13 02:10:39;;;;;;;4.87;3.27;;;;;;;;;;5043713;28;20197;-80
2022/04/13 02:13:04;;;;;;;5.20;2.83;;;8.90;99.90;;;;;;5042238;28;20201;-80
2022/04/13 02:15:30;;;;;;;3.00;2.17;;;;;;;;;;5044216;28;20201;-80
2022/04/13 02:17:56;;;;;;;4.93;3.00;;;8.80;99.90;;;;;;5043130;28;20198;-80
2022/04/13 02:20:22;;;;;;;3.63;2.40;;;8.80;99.90;;;;;;5041930;28;20186;-80
2022/04/13 02:22:48;;;;;;;4.43;2.87;;;8.70;99.90;;;;;;5041055;28;20178;-80
2022/04/13 02:25:14;;;;;;;3.03;2.57;;;;;;;;;;5042339;28;20174;-80
2022/04/13 02:27:40;;;;;;;4.57;2.73;;;8.80;99.90;;;;;;5040939;28;20179;-80
2022/04/13 02:30:06;;;;;;;3.37;2.60;;;8.80;99.90;;;;;;5042477;28;20201;-80
2022/04/13 02:32:35;;;;;;;3.67;2.60;;;8.80;99.90;;;;;;5040809;28;20217;-80
2022/04/13 02:35:01;;;;;;;7.93;2.50;;;8.90;99.90;;;;;;5042702;28;20205;-80
2022/04/13 02:37:27;;;;;;;2.73;2.33;;;;;;;;;;5042618;28;20676;-81
2022/04/13 02:39:53;;;;;;;3.23;2.40;;;;;;;;;;5040895;28;20244;-80
2022/04/13 02:42:19;;;;;;;3.37;2.43;;;8.70;99.90;;;;;;5041153;28;20185;-80
2022/04/13 02:44:45;;;;;;;2.60;2.03;;;8.70;99.90;;;;;;5040720;28;20182;-81
2022/04/13 02:47:11;;;;;;;4.53;2.83;;;8.60;99.90;;;;;;5042303;28;20170;-81
2022/04/13 02:49:37;;;;;;;4.07;2.13;;;8.60;99.90;;;;;;5040410;28;20194;-81
2022/04/13 02:52:03;;;;;;;6.40;2.70;;;8.50;99.90;;;;;;5040966;28;20179;-80
2022/04/13 02:54:29;;;;;;;4.50;2.07;;;8.50;99.90;;;;;;5042976;28;20234;-80
2022/04/13 02:56:54;;;;;;;5.40;2.30;;;8.50;99.90;;;;;;5043919;28;20240;-79
2022/04/13 02:59:20;;;;;;;3.90;2.60;;;;;;;;;;5055795;28;20195;-79
2022/04/13 03:01:47;;;;;;;4.70;2.50;;;8.50;99.90;;;;;;5053708;28;20219;-79
2022/04/13 03:04:13;;;;;;;4.37;2.50;;;8.50;99.90;;;;;;5049455;28;20167;-82
2022/04/13 03:06:39;;;;;;;2.50;2.23;;;8.50;99.90;;;;;;5039553;28;20265;-81
2022/04/13 03:09:05;;;;;;;4.30;2.77;;;;;;;;;;5039972;28;20210;-81
2022/04/13 03:11:31;;;;;;;3.17;2.57;;;8.50;99.90;;;;;;5044802;28;20178;-80
2022/04/13 03:13:57;;;;;;;4.53;2.63;;;;;;;;;;5038911;28;20312;-81
2022/04/13 03:16:23;;;;;;;2.97;2.33;;;8.50;99.90;;;;;;5038137;28;20212;-80
2022/04/13 03:18:49;;;;;;;4.23;2.50;;;;;;;;;;5038145;28;20174;-80
2022/04/13 03:21:14;;;;;;;4.87;2.53;;;8.50;99.90;;;;;;5037256;28;20202;-80
2022/04/13 03:23:41;;;;;;;7.20;2.80;;;;;;;;;;5035656;28;20181;-80
2022/04/13 03:26:07;;;;;;;2.83;2.50;;;8.40;99.90;;;;;;5036421;28;20193;-80
2022/04/13 03:28:33;;;;;;;5.90;3.10;;;8.30;99.90;;;;;;5036027;28;20219;-80
2022/04/13 03:30:59;;;;;;;3.50;2.80;;;8.30;99.90;;;;;;5035443;28;20198;-81
2022/04/13 03:33:25;;;;;;;4.27;2.53;;;8.30;99.90;;;;;;5037792;28;20183;-80
2022/04/13 03:35:50;;;;;;;6.53;3.07;;;8.30;99.90;;;;;;5040527;28;20232;-80
2022/04/13 03:38:16;;;;;;;6.63;2.33;;;8.20;99.90;;;;;;5038734;28;20196;-81
2022/04/13 03:40:42;;;;;;;3.73;2.73;;;8.20;99.90;;;;;;5039078;28;20277;-81
2022/04/13 03:43:07;;;;;;;5.83;2.83;;;8.20;99.90;;;;;;5038622;28;20181;-81
2022/04/13 03:45:33;;;;;;;7.23;2.80;;;8.20;99.90;;;;;;5038050;28;20249;-81
2022/04/13 03:47:59;;;;;;;4.70;2.83;;;8.10;99.90;;;;;;5038114;28;20190;-81
2022/04/13 03:50:24;;;;;;;4.73;2.90;;;8.00;99.90;;;;;;5039223;28;20220;-81
2022/04/13 03:52:50;;;;;;;3.90;2.40;;;8.00;99.90;;;;;;5038532;28;20182;-81
2022/04/13 03:55:16;;;;;;;3.77;2.90;;;8.10;99.90;;;;;;5038648;28;20209;-81
2022/04/13 03:57:42;;;;;;;5.90;2.90;;;8.00;99.90;;;;;;5038769;28;20177;-81
2022/04/13 04:00:08;;;;;;;3.50;2.60;;;8.00;99.90;;;;;;5038876;28;20202;-81
2022/04/13 04:02:38;;;;;;;4.53;2.93;;;8.00;99.90;;;;;;5040508;28;20173;-81
2022/04/13 04:05:04;;;;;;;3.60;2.70;;;7.90;99.90;;;;;;5038974;28;20217;-81
2022/04/13 04:07:30;;;;;;;3.87;2.77;;;7.90;99.90;;;;;;5041030;28;20260;-81
2022/04/13 04:09:56;;;;;;;2.77;2.47;;;7.80;99.90;;;;;;5053108;28;20204;-80
2022/04/13 04:12:21;;;;;;;5.10;3.20;;;7.80;99.90;;;;;;5046963;28;20182;-80
2022/04/13 04:14:47;;;;;;;3.07;2.80;;;7.80;99.90;;;;;;5052363;28;20174;-80
2022/04/13 04:17:13;;;;;;;3.83;2.90;;;7.70;99.90;;;;;;5048571;28;20281;-81
2022/04/13 04:19:38;;;;;;;5.40;2.80;;;7.70;99.90;;;;;;5038325;28;20190;-81
2022/04/13 04:22:04;;;;;;;4.10;3.07;;;7.70;99.90;;;;;;5036290;28;20186;-81
2022/04/13 04:24:30;;;;;;;3.57;2.80;;;7.70;99.90;;;;;;5036290;28;20237;-81
2022/04/13 04:26:57;;;;;;;4.13;3.10;;;7.60;99.90;;;;;;5038326;28;20183;-81
2022/04/13 04:29:24;;;;;;;4.23;3.63;;;7.60;99.90;;;;;;5038310;28;20198;-81
2022/04/13 04:31:49;;;;;;;3.50;2.77;;;7.50;99.90;;;;;;5036908;28;20206;-81
2022/04/13 04:34:15;;;;;;;4.27;3.17;;;7.50;99.90;;;;;;5037021;28;20209;-81
2022/04/13 04:36:41;;;;;;;3.17;2.87;;;7.50;99.90;;;;;;5036851;28;20214;-81
2022/04/13 04:39:07;;;;;;;5.43;2.83;;;7.50;99.90;;;;;;5036125;28;20542;-81
2022/04/13 04:41:33;;;;;;;3.13;2.30;;;7.50;99.90;;;;;;5036562;28;20181;-81
2022/04/13 04:43:59;;;;;;;3.37;2.60;;;7.50;99.90;;;;;;5036325;28;20185;-81
2022/04/13 04:46:25;;;;;;;2.30;2.10;;;7.50;99.90;;;;;;5038270;28;20189;-81
2022/04/13 04:48:51;;;;;;;3.67;2.37;;;7.60;99.90;;;;;;5037947;28;20632;-81
2022/04/13 04:51:17;;;;;;;2.50;2.20;;;7.50;99.90;;;;;;5037760;28;20285;-81
2022/04/13 04:53:47;;;;;;;3.63;2.90;;;7.60;99.90;;;;;;5036282;28;20280;-81
2022/04/13 04:56:13;;;;;;;2.87;2.57;;;7.60;99.90;;;;;;5035423;28;20210;-81
2022/04/13 04:58:39;;;;;;;4.77;2.67;;;7.70;99.90;;;;;;5036242;28;20205;-81
2022/04/13 05:01:04;;;;;;;8.07;2.70;;;7.70;99.90;;;;;;5037673;28;20198;-82
2022/04/13 05:03:31;;;;;;;3.20;2.43;;;7.70;99.90;;;;;;5037977;28;20179;-82
2022/04/13 05:05:56;;;;;;;5.53;2.27;;;7.70;99.90;;;;;;5038758;28;20211;-82
2022/04/13 05:08:22;;;;;;;3.33;2.97;;;7.60;99.90;;;;;;5038643;28;20540;-82
2022/04/13 05:10:51;;;;;;;4.60;2.60;;;7.60;99.90;;;;;;5036222;28;20201;-82
2022/04/13 05:13:20;;;;;;;4.13;2.40;;;7.50;99.90;;;;;;5036617;28;20539;-81
2022/04/13 05:15:47;;;;;;;3.83;2.70;;;7.40;99.90;;;;;;5039839;28;20570;-82
2022/04/13 05:18:13;;;;;;;2.97;2.60;;;7.30;99.90;;;;;;5039553;28;20641;-82
2022/04/13 05:20:39;;;;;;;4.10;2.67;;;7.40;99.90;;;;;;5039506;28;20197;-82
2022/04/13 05:23:05;;;;;;;3.47;1.93;;;7.40;99.90;;;;;;5040184;28;20262;-83
2022/04/13 05:25:31;;;;;;;6.80;2.63;;;7.50;99.90;;;;;;5040327;28;20188;-82
2022/04/13 05:27:57;;;;;;;5.60;2.13;;;7.60;99.90;;;;;;5040571;28;20182;-82
2022/04/13 05:30:23;;;;;;;4.23;2.50;;;7.50;99.90;;;;;;5041494;28;20201;-81
2022/04/13 05:33:03;;;;;;;4.27;2.40;;;7.60;99.90;;;;;;5040644;28;20183;-82
2022/04/13 05:35:29;;;;;;;7.17;3.00;;;7.60;99.90;;;;;;5042852;28;20197;-82
2022/04/13 05:37:56;;;;;;;3.47;2.13;;;7.70;99.90;;;;;;5043508;28;20199;-81
2022/04/13 05:40:23;;;;;;;3.97;2.47;;;7.70;99.90;;;;;;5043119;28;20191;-83
2022/04/13 05:42:50;;;;;;;4.10;2.40;;;7.70;99.90;;;;;;5043208;28;20707;-82
2022/04/13 05:45:17;;;;;;;2.80;2.23;;;7.80;99.90;;;;;;5041589;28;20216;-82
2022/04/13 05:47:43;;;;;;;6.23;3.10;;;7.90;99.90;;;;;;5041967;28;20225;-82
2022/04/13 05:50:10;;;;;;;4.83;2.60;;;7.90;99.90;;;;;;5039862;28;20202;-82
2022/04/13 05:52:37;;;;;;;5.70;2.93;;;8.00;99.90;;;;;;5039745;28;20185;-81
2022/04/13 05:55:04;;;;;;;4.33;2.70;;;8.00;99.90;;;;;;5039947;28;20192;-81
2022/04/13 05:57:29;;;;;;;5.60;2.57;;;8.10;99.90;;;;;;5043246;28;20203;-82
2022/04/13 05:59:55;;;;;;;11.20;2.77;;;8.20;99.90;;;;;;5042101;28;20207;-84
2022/04/13 06:02:21;;;;;;;4.30;2.40;;;8.20;99.90;;;;;;5042684;28;20266;-83
2022/04/13 06:04:47;;;;;;;15.63;3.90;;;8.30;99.90;;;;;;5043200;28;20179;-85
2022/04/13 06:07:13;;;;;;;10.17;3.20;;;8.40;99.90;;;;;;5043796;28;20182;-86
2022/04/13 06:09:38;;;;;;;6.37;3.13;;;8.50;99.90;;;;;;5043191;28;20208;-85
2022/04/13 06:12:04;;;;;;;15.40;3.93;;;8.50;99.90;;;;;;5052384;28;20179;-84
2022/04/13 06:14:30;;;;;;;14.97;4.03;;;8.70;99.90;;;;;;5059915;28;20164;-84
2022/04/13 06:16:56;;;;;;;14.50;4.70;;;8.70;99.90;;;;;;5059341;28;20197;-84
2022/04/13 06:19:21;;;;;;;6.40;3.00;;;8.90;99.90;;;;;;5045488;28;20198;-83
2022/04/13 06:21:47;;;;;;;9.63;3.10;;;8.90;99.90;;;;;;5040486;28;20184;-85
2022/04/13 06:24:13;;;;;;;12.23;3.00;;;9.00;99.90;;;;;;5042705;28;20179;-85
2022/04/13 06:26:39;;;;;;;13.93;3.30;;;9.10;99.90;;;;;;5038813;28;20184;-85
2022/04/13 06:29:04;;;;;;;4.40;1.93;;;9.10;99.90;;;;;;5039391;28;20175;-85
2022/04/13 06:31:31;;;;;;;3.40;1.87;;;9.20;99.90;;;;;;5039503;28;20182;-85
2022/04/13 06:33:56;;;;;;;3.83;2.20;;;9.30;99.90;;;;;;5037697;28;20186;-85
2022/04/13 06:36:22;;;;;;;6.43;2.50;;;9.50;99.90;;;;;;5036320;28;20211;-85
2022/04/13 06:38:48;;;;;;;10.13;2.40;;;9.60;99.90;;;;;;5036159;28;20206;-85
2022/04/13 06:41:14;;;;;;;8.10;3.30;;;9.80;99.90;;;;;;5036150;28;20199;-86
2022/04/13 06:43:40;;;;;;;18.03;3.77;;;10.00;99.90;;;;;;5035899;28;20268;-85
2022/04/13 06:46:07;;;;;;;12.10;2.80;;;10.10;99.90;;;;;;5040934;28;20182;-85
2022/04/13 06:48:33;;;;;;;11.17;3.87;;;10.30;99.90;;;;;;5040033;28;20262;-85
2022/04/13 06:51:00;;;;;;;9.20;3.63;;;10.40;99.90;;;;;;5040519;28;20200;-85
2022/04/13 06:53:27;;;;;;;8.00;2.80;;;10.70;99.90;;;;;;5038805;28;20597;-85
2022/04/13 06:55:53;;;;;;;3.00;2.67;;;10.80;99.90;;;;;;5040109;28;20205;-84
2022/04/13 06:58:19;;;;;;;6.60;2.30;;;10.90;99.90;;;;;;5039979;28;20610;-83
2022/04/13 07:00:45;;;;;;;4.77;2.07;;;11.00;99.90;;;;;;5038213;28;20213;-85
2022/04/13 07:03:11;;;;;;;3.47;2.20;;;11.00;99.90;;;;;;5039668;28;20182;-84
2022/04/13 07:05:37;;;;;;;4.43;1.97;;;11.00;99.90;;;;;;5039080;28;20185;-85
2022/04/13 07:08:04;;;;;;;3.13;2.10;;;11.20;99.90;;;;;;5039121;28;20668;-85
2022/04/13 07:10:31;;;;;;;5.03;2.10;;;11.40;99.90;;;;;;5039410;28;20204;-85
2022/04/13 07:12:58;;;;;;;4.47;2.00;;;11.50;99.90;;;;;;5039382;28;20531;-85
2022/04/13 07:15:24;;;;;;;3.53;1.83;;;11.70;99.90;;;;;;5037980;28;20216;-85
2022/04/13 07:17:50;;;;;;;4.07;2.43;;;11.90;99.90;;;;;;5038601;28;20198;-85
2022/04/13 07:20:17;;;;;;;4.77;2.40;;;12.10;99.90;;;;;;5038444;28;20667;-85
2022/04/13 07:22:50;;;;;;;5.33;2.13;;;12.50;99.90;;;;;;5038182;28;20221;-85
2022/04/13 07:25:17;;;;;;;3.17;1.93;;;12.80;99.90;;;;;;5038271;28;20241;-85
2022/04/13 07:27:44;;;;;;;6.70;2.20;;;13.20;99.90;;;;;;5038959;28;20181;-85
2022/04/13 07:30:10;;;;;;;5.97;2.00;;;13.70;99.90;;;;;;5040439;28;20250;-84
2022/04/13 07:32:36;;;;;;;2.33;1.70;;;14.30;99.90;;;;;;5025775;28;20178;-84
2022/04/13 07:35:03;;;;;;;2.60;1.70;;;14.80;99.90;;;;;;5043229;28;20178;-85
2022/04/13 07:37:29;;;;;;;6.93;2.00;;;15.30;99.90;;;;;;5040162;28;20194;-85
2022/04/13 07:39:55;;;;;;;4.83;2.00;;;16.00;99.90;;;;;;5040292;28;20206;-85
2022/04/13 07:42:22;;;;;;;6.23;2.43;;;16.60;99.90;;;;;;5041916;28;20175;-86
2022/04/13 07:44:48;;;;;;;7.50;2.87;;;17.30;99.90;;;;;;5039959;28;20183;-85
2022/04/13 07:47:14;;;;;;;4.63;2.40;;;17.80;99.90;;;;;;5040705;28;20178;-86
2022/04/13 07:49:41;;;;;;;8.33;3.03;;;18.50;99.90;;;;;;5041312;28;20197;-86
2022/04/13 07:52:07;;;;;;;4.47;2.37;;;19.40;96.70;;;;;;5040964;28;20552;-86
2022/04/13 07:54:33;;;;;;;5.80;2.43;;;20.00;94.90;;;;;;5042754;28;20202;-86
2022/04/13 07:56:59;;;;;;;10.70;2.40;;;20.50;94.40;;;;;;5046755;28;20214;-86
2022/04/13 07:59:25;;;;;;;5.40;2.53;;;21.00;94.90;;;;;;5045288;28;20249;-86
2022/04/13 08:01:51;;;;;;;4.63;2.30;;;21.60;93.50;;;;;;5040576;28;20229;-86
2022/04/13 08:04:16;;;;;;;2.67;2.20;;;22.10;91.80;;;;;;5040278;28;20210;-83
2022/04/13 08:06:42;;;;;;;4.73;2.37;;;22.30;91.00;;;;;;5041224;28;20195;-85
2022/04/13 08:09:08;;;;;;;2.20;2.00;;;22.80;87.70;;;;;;5042177;28;20185;-86
2022/04/13 08:11:33;;;;;;;3.63;2.03;;;23.40;82.10;;;;;;5042891;28;20258;-83
2022/04/13 08:13:59;;;;;;;6.07;2.07;;;23.70;82.90;;;;;;5043899;28;20304;-84
2022/04/13 08:16:24;;;;;;;3.10;2.37;;;23.90;81.30;;;;;;5048485;28;20228;-83
2022/04/13 08:18:50;;;;;;;3.70;2.27;;;24.10;78.50;;;;;;5057824;28;20174;-83
2022/04/13 08:21:16;;;;;;;4.97;2.30;;;24.20;79.10;;;;;;5057543;28;20198;-83
2022/04/13 08:23:42;;;;;;;7.03;1.93;;;24.40;74.60;;;;;;5048992;28;20676;-84
2022/04/13 08:26:07;;;;;;;4.33;1.97;;;24.20;72.90;;;;;;5042322;28;20260;-84
2022/04/13 08:28:33;;;;;;;6.47;2.57;;;24.40;72.50;;;;;;5042740;28;20182;-84
2022/04/13 08:31:02;;;;;;;3.03;1.70;;;24.40;69.70;;;;;;5042979;28;20205;-84
2022/04/13 08:33:27;;;;;;;2.53;1.73;;;24.60;67.70;;;;;;5042457;28;20233;-84
2022/04/13 08:35:53;;;;;;;4.30;1.90;;;24.70;68.60;;;;;;5042533;28;20279;-83
2022/04/13 08:38:19;;;;;;;4.03;2.10;;;24.40;70.60;;;;;;5042549;28;20267;-84
2022/04/13 08:40:54;;;;;;;5.03;2.50;;;24.00;70.80;;;;;;5048444;28;20184;-83
2022/04/13 08:43:30;;;;;;;3.70;2.00;;;23.80;71.20;;;;;;5055190;28;20174;-83
2022/04/13 08:46:01;;;;;;;4.57;2.23;;;23.10;71.10;;;;;;5038731;28;20172;-83
2022/04/13 08:48:27;;;;;;;4.83;2.50;;;23.00;75.70;;;;;;5038253;28;20168;-83
2022/04/13 08:51:02;;;;;;;4.33;2.10;;;23.20;74.00;;;;;;5041872;28;20282;-83
2022/04/13 08:53:30;;;;;;;9.93;2.20;;;23.30;71.20;;;;;;5044253;28;20168;-84
2022/04/13 08:55:57;;;;;;;6.10;1.83;;;23.50;74.90;;;;;;5043484;28;20208;-83
2022/04/13 08:58:32;;;;;;;8.87;2.10;;;23.70;74.60;;;;;;5043222;28;20174;-83
2022/04/13 09:01:03;;;;;;;8.53;1.90;;;24.10;72.00;;;;;;5042063;28;20197;-83
2022/04/13 09:03:48;;;;;;;5.37;1.77;;;24.10;72.50;;;;;;5042287;28;20167;-83
2022/04/13 09:06:15;;;;;;;2.57;1.80;;;23.40;70.10;;;;;;5041437;28;20189;-80
2022/04/13 09:08:53;;;;;;;2.37;1.70;;;22.80;72.70;;;;;;5041596;28;20656;-82
2022/04/13 09:11:22;;;;;;;3.30;1.90;;;22.90;74.30;;;;;;5042005;28;20201;-83
2022/04/13 09:13:49;;;;;;;3.90;1.80;;;23.30;77.40;;;;;;5040251;28;20187;-83
2022/04/13 09:16:16;;;;;;;2.57;1.83;;;23.10;78.10;;;;;;5040058;28;20215;-83
2022/04/13 09:18:43;;;;;;;3.43;2.17;;;22.40;75.20;;;;;;5040102;28;20171;-83
2022/04/13 09:21:11;;;;;;;2.67;2.30;;;22.60;81.00;;;;;;5039885;28;20253;-83
2022/04/13 09:23:36;;;;;;;4.37;2.30;;;23.10;78.80;;;;;;5041168;28;20297;-83
2022/04/13 09:26:03;;;;;;;3.07;2.13;;;22.90;79.40;;;;;;5040143;28;20593;-83
2022/04/13 09:28:29;;;;;;;2.83;2.00;;;22.60;78.60;;;;;;5040740;28;20175;-82
2022/04/13 09:30:55;;;;;;;4.40;2.37;;;22.70;79.40;;;;;;5038822;28;20598;-82
2022/04/13 09:33:22;;;;;;;3.10;2.33;;;22.70;78.50;;;;;;5039403;28;20177;-83
2022/04/13 09:35:47;;;;;;;2.57;2.00;;;23.00;78.60;;;;;;5038778;28;20213;-81
2022/04/13 09:38:13;;;;;;;10.93;2.70;;;23.50;78.80;;;;;;5038114;28;20212;-80
2022/04/13 09:40:41;;;;;;;13.13;2.80;;;23.80;77.50;;;;;;5037923;28;20203;-80
2022/04/13 09:43:10;;;;;;;4.97;2.40;;;24.10;82.30;;;;;;5038958;28;20532;-81
2022/04/13 09:45:42;;;;;;;5.87;2.00;;;24.00;77.20;;;;;;5038879;28;20256;-81
2022/04/13 09:48:10;;;;;;;11.03;2.20;;;24.00;74.10;;;;;;5038175;28;20173;-80
2022/04/13 09:50:37;;;;;;;4.87;1.60;;;24.00;69.50;;;;;;5035562;28;20256;-81
2022/04/13 09:53:05;;;;;;;2.97;1.57;;;23.90;63.90;;;;;;5035787;28;20171;-83
2022/04/13 09:55:34;;;;;;;3.53;1.63;;;23.80;66.90;;;;;;5040572;28;20222;-83
2022/04/13 09:58:08;;;;;;;6.17;1.93;;;23.70;66.20;;;;;;5044928;28;20230;-84
2022/04/13 10:00:37;;;;;;;1.70;1.37;;;23.00;62.30;;;;;;5045920;28;20575;-84
2022/04/13 10:03:12;;;;;;;5.17;1.70;;;23.20;60.70;;;;;;5044828;28;20180;-84
2022/04/13 10:05:43;;;;;;;4.53;1.80;;;23.70;64.60;;;;;;5043971;28;20184;-83
2022/04/13 10:08:10;;;;;;;2.67;1.80;;;23.60;65.90;;;;;;5044613;28;20554;-83
2022/04/13 10:10:43;;;;;;;3.33;1.40;;;23.30;69.60;;;;;;5043539;28;20209;-84
2022/04/13 10:13:10;;;;;;;3.30;1.20;;;23.40;60.30;;;;;;5043893;28;20167;-84
2022/04/13 10:15:35;;;;;;;4.67;1.50;;;23.50;55.70;;;;;;5043073;28;20235;-83
2022/04/13 10:18:01;;;;;;;3.07;1.27;;;23.70;58.20;;;;;;5044221;28;20178;-84
2022/04/13 10:20:44;;;;;;;6.07;1.37;;;23.70;56.90;;;;;;5044476;28;20194;-84
2022/04/13 10:23:10;;;;;;;2.60;1.50;;;24.00;56.20;;;;;;5050845;28;20532;-82
2022/04/13 10:25:36;;;;;;;3.50;1.67;;;24.20;55.20;;;;;;5052750;28;20182;-83
2022/04/13 10:28:02;;;;;;;5.07;1.70;;;24.50;55.00;;;;;;5051720;28;20258;-82
2022/04/13 10:30:37;;;;;;;5.63;1.60;;;24.10;54.00;;;;;;5041858;28;20205;-83
2022/04/13 10:33:11;;;;;;;3.20;1.90;;;24.30;55.70;;;;;;5040413;28;20163;-81
2022/04/13 10:35:41;;;;;;;4.20;2.00;;;24.10;53.30;;;;;;5041552;28;20198;-81
2022/04/13 10:38:08;;;;;;;7.00;2.77;;;23.30;53.90;;;;;;5042064;28;20183;-81
2022/04/13 10:40:40;;;;;;;3.37;2.50;;;23.30;59.10;;;;;;5038522;28;20205;-82
2022/04/13 10:43:13;;;;;;;2.50;2.30;;;23.40;57.90;;;;;;5038038;28;20227;-82
2022/04/13 10:45:40;;;;;;;3.33;1.70;;;23.70;57.20;;;;;;5038336;28;20170;-82
2022/04/13 10:48:08;;;;;;;6.00;2.20;;;23.90;55.70;;;;;;5043084;28;20214;-82
2022/04/13 10:50:36;;;;;;;4.57;1.90;;;24.30;65.40;;;;;;5042320;28;20201;-82
2022/04/13 10:53:20;;;;;;;5.20;2.03;;;24.50;56.00;;;;;;5041380;28;20202;-82
2022/04/13 10:56:02;;;;;;;2.97;2.20;;;24.60;56.40;;;;;;5042628;28;20215;-82
2022/04/13 10:58:50;;;;;;;3.60;1.97;;;24.60;57.90;;;;;;5037583;28;20524;-76
2022/04/13 11:01:19;;;;;;;3.10;1.70;;;23.90;56.30;;;;;;5034484;28;20204;-77
2022/04/13 11:03:46;;;;;;;4.30;1.73;;;24.20;56.60;;;;;;5034623;28;20168;-77
2022/04/13 11:06:13;;;;;;;50.13;7.13;;;24.40;55.80;;;;;;5035033;28;20263;-77
2022/04/13 11:09:05;;;;;;;6.20;1.63;;;24.60;54.70;;;;;;5028999;28;20176;-77
2022/04/13 11:11:31;;;;;;;7.90;2.10;;;24.80;54.20;;;;;;5041527;28;20182;-77
2022/04/13 11:13:57;;;;;;;2.23;1.67;;;25.30;55.50;;;;;;5033520;28;20271;-77
2022/04/13 11:16:27;;;;;;;3.27;1.50;;;25.40;53.80;;;;;;5032198;28;20290;-77
2022/04/13 11:19:04;;;;;;;4.63;1.57;;;25.50;54.50;;;;;;5034350;28;20171;-77
2022/04/13 11:21:34;;;;;;;3.57;2.20;;;25.50;53.50;;;;;;5034461;28;20536;-76
2022/04/13 11:24:00;;;;;;;2.97;2.40;;;25.20;51.70;;;;;;5034306;28;20180;-76
2022/04/13 11:26:47;;;;;;;2.90;2.33;;;25.20;56.50;;;;;;5034235;28;20185;-77
2022/04/13 11:29:21;;;;;;;3.57;2.47;;;25.30;53.00;;;;;;5034090;28;20199;-77
2022/04/13 11:32:02;;;;;;;4.30;2.47;;;25.50;55.90;;;;;;5034655;28;20656;-77
2022/04/13 11:34:34;;;;;;;3.13;2.03;;;25.00;54.70;;;;;;5034173;28;20174;-77
2022/04/13 11:37:02;;;;;;;5.53;2.23;;;25.40;56.50;;;;;;5034225;28;20274;-77
2022/04/13 11:39:53;;;;;;;4.87;2.13;;;25.60;53.10;;;;;;5036804;28;20205;-83
2022/04/13 11:42:27;;;;;;;3.17;1.70;;;25.80;51.60;;;;;;5038671;28;20184;-78
2022/04/13 11:45:00;;;;;;;3.83;2.03;;;25.90;49.70;;;;;;5041873;28;20172;-78
2022/04/13 11:47:49;;;;;;;7.93;2.20;;;26.50;50.30;;;;;;5039189;28;20161;-78
2022/04/13 11:50:14;;;;;;;5.03;2.50;;;27.10;51.50;;;;;;5037576;28;20280;-80
2022/04/13 11:52:53;;;;;;;6.27;2.40;;;27.00;48.60;;;;;;5040731;28;20256;-79
2022/04/13 11:55:24;;;;;;;24.53;3.40;;;26.80;50.30;;;;;;5038780;28;20181;-80
2022/04/13 11:58:04;;;;;;;6.17;2.60;;;27.10;49.60;;;;;;5037524;28;20521;-78
2022/04/13 12:00:56;;;;;;;6.60;3.10;;;26.80;49.80;;;;;;5036168;28;20199;-78
2022/04/13 12:03:28;;;;;;;10.63;2.53;;;27.20;53.40;;;;;;5035935;28;20186;-78
2022/04/13 12:05:57;;;;;;;3.47;2.43;;;27.50;48.40;;;;;;5036385;28;20166;-78
2022/04/13 12:08:29;;;;;;;4.13;2.47;;;27.40;48.70;;;;;;5038134;28;20178;-80
2022/04/13 12:10:57;;;;;;;5.07;2.73;;;27.90;50.90;;;;;;5039527;28;20198;-78
2022/04/13 12:13:24;;;;;;;3.93;3.20;;;28.00;48.00;;;;;;5038855;28;20213;-80
2022/04/13 12:15:54;;;;;;;7.07;3.17;;;28.00;46.90;;;;;;5033764;28;20672;-78
2022/04/13 12:18:22;;;;;;;6.23;3.73;;;27.40;47.60;;;;;;5034312;28;20190;-77
2022/04/13 12:20:48;;;;;;;9.80;4.03;;;27.10;50.20;;;;;;5035051;28;20528;-77
2022/04/13 12:23:21;;;;;;;8.63;3.00;;;27.00;49.40;;;;;;5033605;28;20518;-77
2022/04/13 12:25:50;;;;;;;7.30;2.57;;;26.50;46.10;;;;;;5034842;28;20178;-77
2022/04/13 12:28:16;;;;;;;3.67;2.80;;;26.10;47.90;;;;;;5034409;28;20185;-78
2022/04/13 12:30:42;;;;;;;5.80;2.60;;;26.30;46.00;;;;;;5034070;28;20695;-79
2022/04/13 12:33:13;;;;;;;4.63;2.57;;;26.90;47.00;;;;;;5036234;28;20177;-80
2022/04/13 12:35:50;;;;;;;4.70;2.00;;;26.90;44.00;;;;;;5035950;28;20200;-79
2022/04/13 12:38:24;;;;;;;27.77;5.47;;;26.50;46.10;;;;;;5035884;28;20195;-81
2022/04/13 12:41:00;;;;;;;11.23;1.50;;;27.40;45.80;;;;;;5037599;28;20192;-81
2022/04/13 12:43:28;;;;;;;7.40;1.47;;;28.20;43.10;;;;;;5040511;28;20185;-80
2022/04/13 12:45:54;;;;;;;4.27;1.60;;;28.00;41.80;;;;;;5041640;28;20176;-81
2022/04/13 12:48:27;;;;;;;4.33;2.43;;;28.10;42.40;;;;;;5036956;28;20174;-80
2022/04/13 12:50:59;;;;;;;4.33;1.97;;;27.60;43.20;;;;;;5034828;28;20674;-79
2022/04/13 12:53:26;;;;;;;5.07;3.00;;;27.70;46.00;;;;;;5040190;28;20637;-82
2022/04/13 12:55:55;;;;;;;3.87;3.47;;;28.10;46.10;;;;;;5039420;28;20202;-83
2022/04/13 12:58:22;;;;;;;4.23;2.80;;;28.60;45.60;;;;;;5042042;28;20170;-84